Time,TemperatureF,DewpointF,PressureIn,WindDirection,WindDirectionDegrees,WindSpeedMPH,WindSpeedGustMPH,Humidity,HourlyPrecipIn,Conditions,Clouds,dailyrainin,SolarRadiationWatts/m^2,SoftwareType,DateUTC
2013-01-10 00:00:00,21.5,16.3,30.05,SSE,165,0.0,0.0,80,0.00,-RA,,0.00,0.0,WeatherDisplay:10.37,2013-01-10 06:00:00,
2013-01-10 00:05:00,21.5,16.3,30.05,SSE,165,3.5,3.5,80,0.00,-RA,,0.00,0.0,WeatherDisplay:10.37,2013-01-10 06:05:00,
2013-01-10 00:10:00,21.5,16.3,30.05,SSE,165,3.5,0.0,80,0.00,-RA,,0.00,0.0,WeatherDisplay:10.37,2013-01-10 06:10:00,
2013-01-10 00:15:00,21.5,16.3,30.05,SSE,165,1.1,0.0,80,0.00,-RA,,0.00,0.0,WeatherDisplay:10.37,2013-01-10 06:15:00,
2013-01-10 00:20:00,21.6,16.4,30.05,SSE,165,0.0,0.0,80,0.00,-RA,,0.00,0.0,WeatherDisplay:10.37,2013-01-10 06:20:00,
2013-01-10 00:25:00,21.6,16.4,30.05,SSE,164,1.1,1.1,80,0.00,-RA,,0.00,0.0,WeatherDisplay:10.37,2013-01-10 06:25:00,
2013-01-10 00:30:00,21.6,16.4,30.05,SSE,163,0.0,0.9,80,0.00,-RA,,0.00,0.0,WeatherDisplay:10.37,2013-01-10 06:30:00,
2013-01-10 00:35:00,21.7,16.5,30.05,SSE,163,0.0,0.0,80,0.00,-RA,,0.00,0.0,WeatherDisplay:10.37,2013-01-10 06:35:00,
2013-01-10 00:40:00,21.7,16.5,30.05,SSE,161,1.1,0.0,80,0.00,-RA,,0.00,0.0,WeatherDisplay:10.37,2013-01-10 06:40:00,
2013-01-10 00:45:00,21.7,16.5,30.05,SSE,162,0.0,0.0,80,0.00,-RA,,0.00,0.0,WeatherDisplay:10.37,2013-01-10 06:45:00,
2013-01-10 00:51:00,21.7,16.5,30.05,SSE,161,0.0,0.3,80,0.00,-RA,,0.00,0.0,WeatherDisplay:10.37,2013-01-10 06:51:00,
2013-01-10 00:56:00,21.7,16.5,30.05,SSE,162,0.0,0.0,80,0.00,-RA,,0.00,0.0,WeatherDisplay:10.37,2013-01-10 06:56:00,
2013-01-10 01:01:00,21.6,16.4,30.05,SSE,161,1.1,0.0,80,0.00,-RA,,0.00,0.0,WeatherDisplay:10.37,2013-01-10 07:01:00,
2013-01-10 01:06:00,21.6,16.4,30.06,SSE,161,1.1,0.0,80,0.00,-RA,,0.00,0.0,WeatherDisplay:10.37,2013-01-10 07:06:00,
2013-01-10 01:11:00,21.6,16.7,30.06,SSE,159,0.0,0.0,81,0.00,-RA,,0.00,0.0,WeatherDisplay:10.37,2013-01-10 07:11:00,
2013-01-10 01:16:00,21.6,16.7,30.06,SSE,160,0.0,0.1,81,0.00,-RA,,0.00,0.0,WeatherDisplay:10.37,2013-01-10 07:16:00,
2013-01-10 01:21:00,21.7,16.8,30.06,SSE,165,1.1,1.1,81,0.00,-RA,,0.00,0.0,WeatherDisplay:10.37,2013-01-10 07:21:00,
2013-01-10 01:26:00,21.8,16.9,30.06,SSE,163,1.1,0.0,81,0.00,-RA,,0.00,0.0,WeatherDisplay:10.37,2013-01-10 07:26:00,
2013-01-10 01:31:00,21.8,16.9,30.06,SE,141,1.1,1.1,81,0.00,-RA,,0.00,0.0,WeatherDisplay:10.37,2013-01-10 07:31:00,
2013-01-10 01:36:00,21.9,17.0,30.06,SE,142,1.1,1.1,81,0.00,-RA,,0.00,0.0,WeatherDisplay:10.37,2013-01-10 07:36:00,
2013-01-10 01:41:00,21.9,17.0,30.05,SE,142,0.0,0.0,81,0.00,-RA,,0.00,0.0,WeatherDisplay:10.37,2013-01-10 07:41:00,
2013-01-10 01:46:00,21.9,17.0,30.06,SE,142,1.1,0.0,81,0.00,-RA,,0.00,0.0,WeatherDisplay:10.37,2013-01-10 07:46:00,
2013-01-10 01:51:00,21.9,16.7,30.05,SE,144,0.0,0.0,80,0.00,-RA,,0.00,0.0,WeatherDisplay:10.37,2013-01-10 07:51:00,
2013-01-10 01:56:00,21.9,17.0,30.05,SE,144,0.0,0.0,81,0.00,-RA,,0.00,0.0,WeatherDisplay:10.37,2013-01-10 07:56:00,
2013-01-10 02:01:00,21.9,16.7,30.04,SE,144,2.3,2.3,80,0.00,-RA,,0.00,0.0,WeatherDisplay:10.37,2013-01-10 08:01:00,
2013-01-10 02:06:00,21.9,17.0,30.04,SE,144,0.0,0.0,81,0.00,-RA,,0.00,0.0,WeatherDisplay:10.37,2013-01-10 08:06:00,
2013-01-10 02:11:00,21.8,16.9,30.04,SE,145,0.0,0.0,81,0.00,-RA,,0.00,0.0,WeatherDisplay:10.37,2013-01-10 08:11:00,
2013-01-10 02:16:00,21.8,16.6,30.04,SE,145,0.0,0.0,80,0.00,-RA,,0.00,0.0,WeatherDisplay:10.37,2013-01-10 08:16:00,
2013-01-10 02:21:00,21.8,16.9,30.04,SE,145,0.0,0.0,81,0.00,-RA,,0.00,0.0,WeatherDisplay:10.37,2013-01-10 08:21:00,
2013-01-10 02:26:00,21.7,16.8,30.04,SE,145,2.3,2.3,81,0.00,-RA,,0.00,0.0,WeatherDisplay:10.37,2013-01-10 08:26:00,
2013-01-10 02:31:00,21.6,16.7,30.04,SE,145,1.1,0.0,81,0.00,-RA,,0.00,0.0,WeatherDisplay:10.37,2013-01-10 08:31:00,
2013-01-10 02:36:00,21.6,16.7,30.03,SE,145,0.0,0.0,81,0.00,-RA,,0.00,0.0,WeatherDisplay:10.37,2013-01-10 08:36:00,
2013-01-10 02:41:00,21.6,16.7,30.03,SE,144,0.0,0.0,81,0.00,-RA,,0.00,0.0,WeatherDisplay:10.37,2013-01-10 08:41:00,
2013-01-10 02:46:00,21.5,16.9,30.03,SE,145,2.0,2.0,82,0.00,-RA,,0.00,0.0,WeatherDisplay:10.37,2013-01-10 08:46:00,
2013-01-10 02:51:00,21.6,17.0,30.02,SE,144,2.3,2.3,82,0.00,-RA,,0.00,0.0,WeatherDisplay:10.37,2013-01-10 08:51:00,
2013-01-10 02:56:00,21.6,17.2,30.02,SE,144,0.0,0.0,83,0.00,-RA,,0.00,0.0,WeatherDisplay:10.37,2013-01-10 08:56:00,
2013-01-10 03:01:00,21.6,17.2,30.02,SE,145,0.0,0.0,83,0.00,-RA,,0.00,0.0,WeatherDisplay:10.37,2013-01-10 09:01:00,
2013-01-10 03:06:00,21.7,17.6,30.01,SE,145,0.0,0.0,84,0.00,-RA,,0.00,0.0,WeatherDisplay:10.37,2013-01-10 09:06:00,
2013-01-10 03:11:00,21.8,17.7,30.01,SE,143,0.0,0.0,84,0.00,-RA,,0.00,0.0,WeatherDisplay:10.37,2013-01-10 09:11:00,
2013-01-10 03:16:00,21.9,17.8,30.01,SE,143,0.0,0.0,84,0.00,-RA,,0.00,0.0,WeatherDisplay:10.37,2013-01-10 09:16:00,
2013-01-10 03:21:00,22.0,17.9,30.00,SSE,153,1.1,1.1,84,0.00,-RA,,0.00,0.0,WeatherDisplay:10.37,2013-01-10 09:21:00,
2013-01-10 03:26:00,22.1,18.3,30.00,SSE,163,3.5,3.5,85,0.00,-RA,,0.00,0.0,WeatherDisplay:10.37,2013-01-10 09:26:00,
2013-01-10 03:31:00,22.3,20.3,30.00,SSE,163,1.1,1.1,92,0.00,-RA,,0.00,0.0,WeatherDisplay:10.37,2013-01-10 09:31:00,
2013-01-10 03:36:00,22.4,18.6,29.99,SSE,161,1.1,0.0,85,0.00,-RA,,0.00,0.0,WeatherDisplay:10.37,2013-01-10 09:36:00,
2013-01-10 03:41:00,22.6,18.8,29.99,SSE,159,3.5,3.5,85,0.00,-RA,,0.00,0.0,WeatherDisplay:10.37,2013-01-10 09:41:00,
2013-01-10 03:46:00,22.7,18.9,29.98,SE,146,5.8,5.8,85,0.00,-RA,,0.00,0.0,WeatherDisplay:10.37,2013-01-10 09:46:00,
2013-01-10 03:51:00,22.9,19.1,29.98,SSE,163,3.5,3.5,85,0.00,-RA,,0.00,0.0,WeatherDisplay:10.37,2013-01-10 09:51:00,
2013-01-10 03:56:00,23.0,19.2,29.98,SSE,149,3.5,3.5,85,0.00,-RA,,0.00,0.0,WeatherDisplay:10.37,2013-01-10 09:56:00,
2013-01-10 04:01:00,23.1,19.3,29.98,South,178,2.3,2.3,85,0.00,-RA,,0.00,0.0,WeatherDisplay:10.37,2013-01-10 10:01:00,
2013-01-10 04:06:00,23.3,19.5,29.98,SSE,165,3.5,3.5,85,0.00,-RA,,0.00,0.0,WeatherDisplay:10.37,2013-01-10 10:06:00,
2013-01-10 04:11:00,23.4,19.8,29.97,SSE,152,3.5,3.5,86,0.00,-RA,,0.00,0.0,WeatherDisplay:10.37,2013-01-10 10:11:00,
2013-01-10 04:16:00,23.5,19.9,29.97,SSE,167,2.0,2.0,86,0.00,-RA,,0.00,0.0,WeatherDisplay:10.37,2013-01-10 10:16:00,
2013-01-10 04:21:00,23.7,20.1,29.97,ESE,110,3.5,0.0,86,0.00,-RA,,0.00,0.0,WeatherDisplay:10.37,2013-01-10 10:21:00,
2013-01-10 04:26:00,23.9,20.3,29.97,SE,142,4.6,4.6,86,0.00,-RA,,0.00,0.0,WeatherDisplay:10.37,2013-01-10 10:26:00,
2013-01-10 04:31:00,24.1,20.5,29.97,South,173,1.1,1.1,86,0.00,-RA,,0.00,0.0,WeatherDisplay:10.37,2013-01-10 10:31:00,
2013-01-10 04:36:00,24.1,20.5,29.97,SSE,157,2.0,2.0,86,0.00,-RA,,0.00,0.0,WeatherDisplay:10.37,2013-01-10 10:36:00,
2013-01-10 04:41:00,24.1,20.5,29.96,SSE,153,2.3,2.3,86,0.00,-RA,,0.00,0.0,WeatherDisplay:10.37,2013-01-10 10:41:00,
2013-01-10 04:46:00,24.1,20.5,29.96,SSE,155,4.6,4.6,86,0.00,-RA,,0.00,0.0,WeatherDisplay:10.37,2013-01-10 10:46:00,
2013-01-10 04:51:00,24.2,20.6,29.95,SSE,167,4.0,4.0,86,0.00,-RA,,0.00,0.0,WeatherDisplay:10.37,2013-01-10 10:51:00,
2013-01-10 04:56:00,24.2,20.6,29.95,South,175,0.0,0.0,86,0.00,-RA,,0.00,0.0,WeatherDisplay:10.37,2013-01-10 10:56:00,
2013-01-10 05:01:00,24.3,20.7,29.95,SSE,150,3.5,3.5,86,0.00,-RA,,0.00,0.0,WeatherDisplay:10.37,2013-01-10 11:01:00,
2013-01-10 05:06:00,24.4,20.8,29.95,SE,146,1.0,1.0,86,0.00,-RA,,0.00,0.0,WeatherDisplay:10.37,2013-01-10 11:06:00,
2013-01-10 05:11:00,24.4,20.8,29.94,South,178,6.9,6.9,86,0.00,-RA,,0.00,0.0,WeatherDisplay:10.37,2013-01-10 11:11:00,
2013-01-10 05:16:00,24.4,20.8,29.95,SE,144,2.3,2.3,86,0.00,-RA,,0.00,0.0,WeatherDisplay:10.37,2013-01-10 11:16:00,
2013-01-10 05:21:00,24.5,20.9,29.94,South,177,1.1,1.1,86,0.00,-RA,,0.00,0.0,WeatherDisplay:10.37,2013-01-10 11:21:00,
2013-01-10 05:26:00,24.6,21.0,29.93,South,175,0.0,0.0,86,0.00,-RA,,0.00,0.0,WeatherDisplay:10.37,2013-01-10 11:26:00,
2013-01-10 05:31:00,24.9,21.6,29.94,SSE,163,3.5,3.5,87,0.00,-RA,,0.00,0.0,WeatherDisplay:10.37,2013-01-10 11:31:00,
2013-01-10 05:36:00,25.1,21.8,29.93,South,181,4.6,4.6,87,0.00,-RA,,0.00,0.0,WeatherDisplay:10.37,2013-01-10 11:36:00,
2013-01-10 05:41:00,25.2,21.9,29.93,South,179,1.1,0.0,87,0.00,-RA,,0.00,0.0,WeatherDisplay:10.37,2013-01-10 11:41:00,
2013-01-10 05:46:00,25.3,22.0,29.93,South,182,5.8,5.8,87,0.00,-RA,,0.00,0.0,WeatherDisplay:10.37,2013-01-10 11:46:00,
2013-01-10 05:51:00,25.4,22.1,29.93,South,178,2.3,2.3,87,0.00,-RA,,0.00,0.0,WeatherDisplay:10.37,2013-01-10 11:51:00,
2013-01-10 05:56:00,25.6,22.3,29.93,SSE,154,5.8,5.8,87,0.00,-RA,,0.00,0.0,WeatherDisplay:10.37,2013-01-10 11:56:00,
2013-01-10 06:01:00,25.9,22.6,29.93,SSW,194,2.3,2.3,87,0.00,-RA,,0.00,0.0,WeatherDisplay:10.37,2013-01-10 12:01:00,
2013-01-10 06:06:00,26.2,23.1,29.92,South,184,4.6,4.6,88,0.00,-RA,,0.00,0.0,WeatherDisplay:10.37,2013-01-10 12:06:00,
2013-01-10 06:11:00,26.8,23.7,29.93,South,178,3.5,3.5,88,0.00,-RA,,0.00,0.0,WeatherDisplay:10.37,2013-01-10 12:11:00,
2013-01-10 06:16:00,27.2,23.8,29.92,South,172,3.5,3.5,87,0.00,-RA,,0.00,0.0,WeatherDisplay:10.37,2013-01-10 12:16:00,
2013-01-10 06:21:00,27.5,23.9,29.92,South,180,5.8,5.8,86,0.00,-RA,,0.00,0.0,WeatherDisplay:10.37,2013-01-10 12:21:00,
2013-01-10 06:26:00,27.9,24.3,29.92,SSW,199,4.6,4.6,86,0.00,-RA,,0.00,0.0,WeatherDisplay:10.37,2013-01-10 12:26:00,
2013-01-10 06:31:00,28.3,24.4,29.93,SSW,192,6.0,6.0,85,0.00,-RA,,0.00,0.0,WeatherDisplay:10.37,2013-01-10 12:31:00,
2013-01-10 06:36:00,28.6,24.4,29.92,South,171,5.8,5.8,84,0.00,-RA,,0.00,0.0,WeatherDisplay:10.37,2013-01-10 12:36:00,
2013-01-10 06:41:00,29.0,24.8,29.92,South,180,6.9,6.9,84,0.00,-RA,,0.00,0.0,WeatherDisplay:10.37,2013-01-10 12:41:00,
2013-01-10 06:46:00,29.3,24.8,29.92,South,179,3.5,3.5,83,0.00,-RA,,0.00,0.0,WeatherDisplay:10.37,2013-01-10 12:46:00,
2013-01-10 06:51:00,29.5,24.7,29.92,South,171,3.5,3.5,82,0.00,-RA,,0.00,0.0,WeatherDisplay:10.37,2013-01-10 12:51:00,
2013-01-10 06:56:00,29.6,24.8,29.92,South,177,3.5,3.5,82,0.00,-RA,,0.00,0.0,WeatherDisplay:10.37,2013-01-10 12:56:00,
2013-01-10 07:01:00,29.8,25.0,29.92,South,181,4.0,4.0,82,0.00,-RA,,0.00,0.0,WeatherDisplay:10.37,2013-01-10 13:01:00,
2013-01-10 07:06:00,30.2,25.1,29.92,SSW,192,8.1,8.1,81,0.00,-RA,,0.00,0.0,WeatherDisplay:10.37,2013-01-10 13:06:00,
2013-01-10 07:11:00,30.7,25.6,29.92,South,179,5.8,5.8,81,0.00,-RA,,0.00,0.0,WeatherDisplay:10.37,2013-01-10 13:11:00,
2013-01-10 07:16:00,31.0,25.2,29.92,South,178,1.1,1.1,79,0.00,-RA,,0.00,0.0,WeatherDisplay:10.37,2013-01-10 13:16:00,
2013-01-10 07:22:00,31.1,25.3,29.92,South,179,3.5,3.5,79,0.00,-RA,,0.00,0.0,WeatherDisplay:10.37,2013-01-10 13:22:00,
2013-01-10 07:27:00,31.1,25.0,29.92,South,171,1.1,1.1,78,0.00,-RA,,0.00,0.0,WeatherDisplay:10.37,2013-01-10 13:27:00,
2013-01-10 07:32:00,31.0,24.9,29.91,South,191,1.1,1.1,78,0.00,-RA,,0.00,0.0,WeatherDisplay:10.37,2013-01-10 13:32:00,
2013-01-10 07:37:00,30.8,24.7,29.91,South,190,4.6,4.6,78,0.00,-RA,,0.00,0.0,WeatherDisplay:10.37,2013-01-10 13:37:00,
2013-01-10 07:42:00,30.7,24.7,29.91,SSE,162,0.0,0.3,78,0.00,-RA,,0.00,0.0,WeatherDisplay:10.37,2013-01-10 13:42:00,
2013-01-10 07:47:00,30.5,24.8,29.91,South,173,3.5,3.5,79,0.00,-RA,,0.00,0.0,WeatherDisplay:10.37,2013-01-10 13:47:00,
2013-01-10 07:52:00,30.3,24.6,29.91,SSE,161,1.1,1.1,79,0.00,-RA,,0.00,0.0,WeatherDisplay:10.37,2013-01-10 13:52:00,
2013-01-10 07:57:00,30.1,24.4,29.90,South,190,1.1,0.0,79,0.00,-RA,,0.00,5.0,WeatherDisplay:10.37,2013-01-10 13:57:00,
2013-01-10 08:02:00,30.0,24.3,29.90,South,180,0.0,0.0,79,0.00,-RA,,0.00,12.0,WeatherDisplay:10.37,2013-01-10 14:02:00,
2013-01-10 08:07:00,29.9,24.5,29.90,South,182,4.6,4.6,80,0.00,-RA,,0.00,14.0,WeatherDisplay:10.37,2013-01-10 14:07:00,
2013-01-10 08:12:00,29.9,24.8,29.90,SSE,165,3.5,3.5,81,0.00,-RA,,0.00,18.0,WeatherDisplay:10.37,2013-01-10 14:12:00,
2013-01-10 08:17:00,30.1,25.0,29.90,SSE,163,8.1,8.1,81,0.00,-RA,,0.00,23.0,WeatherDisplay:10.37,2013-01-10 14:17:00,
2013-01-10 08:22:00,30.5,25.4,29.90,South,184,8.1,8.1,81,0.00,-RA,,0.00,30.0,WeatherDisplay:10.37,2013-01-10 14:22:00,
2013-01-10 08:27:00,31.0,25.9,29.90,South,179,4.6,4.6,81,0.00,-RA,,0.00,33.0,WeatherDisplay:10.37,2013-01-10 14:27:00,
2013-01-10 08:32:00,31.6,26.1,29.90,South,184,8.0,8.0,80,0.00,-RA,,0.00,40.0,WeatherDisplay:10.37,2013-01-10 14:32:00,
2013-01-10 08:37:00,32.3,26.5,29.90,SSE,157,7.0,7.0,79,0.00,-RA,,0.00,46.0,WeatherDisplay:10.37,2013-01-10 14:37:00,
2013-01-10 08:42:00,33.1,27.0,29.90,South,178,9.0,9.0,78,0.00,-RA,,0.00,49.0,WeatherDisplay:10.37,2013-01-10 14:42:00,
2013-01-10 08:47:00,34.1,27.3,29.90,South,191,8.1,8.1,76,0.00,-RA,,0.00,51.0,WeatherDisplay:10.37,2013-01-10 14:47:00,
2013-01-10 08:52:00,34.8,27.7,29.90,South,181,10.0,10.0,75,0.00,-RA,,0.00,54.0,WeatherDisplay:10.37,2013-01-10 14:52:00,
2013-01-10 08:57:00,35.6,27.8,29.90,SSW,192,11.5,11.5,73,0.00,-RA,,0.00,65.0,WeatherDisplay:10.37,2013-01-10 14:57:00,
2013-01-10 09:02:00,36.2,28.0,29.89,South,189,11.5,11.5,72,0.00,-RA,,0.00,74.0,WeatherDisplay:10.37,2013-01-10 15:02:00,
2013-01-10 09:07:00,36.6,28.1,29.90,SSW,194,8.1,8.1,71,0.00,-RA,,0.00,98.0,WeatherDisplay:10.37,2013-01-10 15:07:00,
2013-01-10 09:12:00,37.1,28.2,29.89,South,185,11.5,11.5,70,0.00,-RA,,0.00,104.0,WeatherDisplay:10.37,2013-01-10 15:12:00,
2013-01-10 09:17:00,37.5,28.2,29.89,South,173,9.2,9.2,69,0.00,-RA,,0.00,95.0,WeatherDisplay:10.37,2013-01-10 15:17:00,
2013-01-10 09:22:00,37.9,28.3,29.89,SSE,164,11.5,11.5,68,0.00,-RA,,0.00,104.0,WeatherDisplay:10.37,2013-01-10 15:22:00,
2013-01-10 09:27:00,38.3,28.7,29.89,South,190,10.0,10.0,68,0.00,-RA,,0.00,105.0,WeatherDisplay:10.37,2013-01-10 15:27:00,
2013-01-10 09:32:00,38.7,28.7,29.89,South,178,11.5,11.5,67,0.00,-RA,,0.00,104.0,WeatherDisplay:10.37,2013-01-10 15:32:00,
2013-01-10 09:37:00,39.2,28.8,29.89,South,180,12.0,12.0,66,0.01,-RA,,0.01,142.0,WeatherDisplay:10.37,2013-01-10 15:37:00,
2013-01-10 09:42:00,39.8,28.6,29.88,South,176,10.4,10.4,64,0.01,-RA,,0.01,204.0,WeatherDisplay:10.37,2013-01-10 15:42:00,
2013-01-10 09:47:00,40.3,28.7,29.88,South,191,12.7,12.7,63,0.01,-RA,,0.01,204.0,WeatherDisplay:10.37,2013-01-10 15:47:00,
2013-01-10 09:52:00,40.8,28.8,29.88,SSE,153,11.5,11.5,62,0.01,-RA,,0.01,248.0,WeatherDisplay:10.37,2013-01-10 15:52:00,
2013-01-10 09:57:00,41.3,28.4,29.88,South,190,10.4,10.4,60,0.01,-RA,,0.01,292.0,WeatherDisplay:10.37,2013-01-10 15:57:00,
2013-01-10 10:02:00,41.8,28.9,29.88,SSW,205,9.2,9.2,60,0.01,-RA,,0.01,287.0,WeatherDisplay:10.37,2013-01-10 16:02:00,
2013-01-10 10:07:00,42.3,29.0,29.88,SSW,195,11.5,11.5,59,0.01,-RA,,0.01,299.0,WeatherDisplay:10.37,2013-01-10 16:07:00,
2013-01-10 10:12:00,42.7,28.5,29.87,South,188,11.5,11.5,57,0.01,-RA,,0.01,299.0,WeatherDisplay:10.37,2013-01-10 16:12:00,
2013-01-10 10:17:00,42.8,28.6,29.87,South,189,10.4,10.4,57,0.01,-RA,,0.01,304.0,WeatherDisplay:10.37,2013-01-10 16:17:00,
2013-01-10 10:22:00,43.1,28.5,29.87,South,190,10.4,10.4,56,0.01,-RA,,0.01,309.0,WeatherDisplay:10.37,2013-01-10 16:22:00,
2013-01-10 10:27:00,43.1,28.9,29.87,South,176,8.0,8.0,57,0.01,-RA,,0.01,306.0,WeatherDisplay:10.37,2013-01-10 16:27:00,
2013-01-10 10:32:00,43.1,28.9,29.87,SSW,205,10.4,10.4,57,0.01,-RA,,0.01,336.0,WeatherDisplay:10.37,2013-01-10 16:32:00,
2013-01-10 10:37:00,43.1,28.9,29.87,ESE,122,8.1,8.1,57,0.00,-RA,,0.01,323.0,WeatherDisplay:10.37,2013-01-10 16:37:00,
2013-01-10 10:42:00,43.4,28.7,29.87,South,175,13.8,13.8,56,0.00,-RA,,0.01,304.0,WeatherDisplay:10.37,2013-01-10 16:42:00,
2013-01-10 10:47:00,43.6,28.9,29.87,SSW,196,7.0,7.0,56,0.00,-RA,,0.01,322.0,WeatherDisplay:10.37,2013-01-10 16:47:00,
2013-01-10 10:52:00,43.9,28.8,29.87,South,179,11.5,11.5,55,0.00,-RA,,0.01,313.0,WeatherDisplay:10.37,2013-01-10 16:52:00,
2013-01-10 10:57:00,44.2,28.6,29.87,SSE,165,6.9,6.9,54,0.00,-RA,,0.01,306.0,WeatherDisplay:10.37,2013-01-10 16:57:00,
2013-01-10 11:02:00,44.5,28.9,29.87,South,182,6.9,6.9,54,0.01,-RA,,0.02,336.0,WeatherDisplay:10.37,2013-01-10 17:02:00,
2013-01-10 11:07:00,45.5,28.4,29.86,South,170,10.4,10.4,51,0.03,-RA,,0.04,299.0,WeatherDisplay:10.37,2013-01-10 17:07:00,
2013-01-10 11:12:00,46.0,28.4,29.86,South,175,10.0,10.0,50,0.05,-RA,,0.06,339.0,WeatherDisplay:10.37,2013-01-10 17:12:00,
2013-01-10 11:17:00,47.0,27.3,29.86,South,188,15.0,15.0,46,0.06,-RA,,0.07,378.0,WeatherDisplay:10.37,2013-01-10 17:17:00,
2013-01-10 11:22:00,47.7,27.4,29.86,South,182,17.3,17.3,45,0.07,-RA,,0.08,373.0,WeatherDisplay:10.37,2013-01-10 17:22:00,
2013-01-10 11:27:00,47.8,27.5,29.85,SSW,195,11.5,11.5,45,0.08,-RA,,0.09,376.0,WeatherDisplay:10.37,2013-01-10 17:27:00,
2013-01-10 11:32:00,47.8,26.9,29.86,SSW,195,12.7,12.7,44,0.09,-RA,,0.10,366.0,WeatherDisplay:10.37,2013-01-10 17:32:00,
2013-01-10 11:37:00,47.8,26.9,29.85,South,182,12.7,12.7,44,0.10,-RA,,0.11,353.0,WeatherDisplay:10.37,2013-01-10 17:37:00,
2013-01-10 11:42:00,47.6,26.7,29.85,SSW,194,9.2,9.2,44,0.10,-RA,,0.12,343.0,WeatherDisplay:10.37,2013-01-10 17:42:00,
2013-01-10 11:47:00,47.4,26.6,29.85,SSW,206,15.0,15.0,44,0.11,-RA,,0.12,336.0,WeatherDisplay:10.37,2013-01-10 17:47:00,
2013-01-10 11:52:00,47.2,26.9,29.85,South,189,11.5,11.5,45,0.12,-RA,,0.13,338.0,WeatherDisplay:10.37,2013-01-10 17:52:00,
2013-01-10 11:57:00,47.2,26.4,29.85,South,191,16.1,16.1,44,0.13,-RA,,0.14,315.0,WeatherDisplay:10.37,2013-01-10 17:57:00,
2013-01-10 12:02:00,46.8,27.1,29.85,South,188,11.5,11.5,46,0.12,-RA,,0.14,329.0,WeatherDisplay:10.37,2013-01-10 18:02:00,
2013-01-10 12:07:00,46.5,26.8,29.84,SW,223,9.2,9.2,46,0.11,-RA,,0.15,290.0,WeatherDisplay:10.37,2013-01-10 18:07:00,
2013-01-10 12:12:00,46.6,27.4,29.84,SSW,196,11.5,11.5,47,0.09,-RA,,0.15,329.0,WeatherDisplay:10.37,2013-01-10 18:12:00,
2013-01-10 12:17:00,46.9,27.7,29.84,SSW,205,9.2,9.2,47,0.08,-RA,,0.15,332.0,WeatherDisplay:10.37,2013-01-10 18:17:00,
2013-01-10 12:22:00,47.0,27.8,29.83,South,175,8.1,8.1,47,0.08,-RA,,0.16,338.0,WeatherDisplay:10.37,2013-01-10 18:22:00,
2013-01-10 12:27:00,47.2,27.5,29.83,South,190,10.4,10.4,46,0.07,-RA,,0.16,327.0,WeatherDisplay:10.37,2013-01-10 18:27:00,
2013-01-10 12:32:00,47.0,27.8,29.83,SSW,203,12.0,12.0,47,0.07,-RA,,0.17,332.0,WeatherDisplay:10.37,2013-01-10 18:32:00,
2013-01-10 12:37:00,47.0,27.8,29.83,SSE,165,13.8,13.8,47,0.06,-RA,,0.17,332.0,WeatherDisplay:10.37,2013-01-10 18:37:00,
2013-01-10 12:42:00,46.7,27.5,29.82,SSW,194,11.5,11.5,47,0.06,-RA,,0.17,255.0,WeatherDisplay:10.37,2013-01-10 18:42:00,
2013-01-10 12:47:00,46.3,27.7,29.82,South,181,8.1,8.1,48,0.06,-RA,,0.18,301.0,WeatherDisplay:10.37,2013-01-10 18:47:00,
2013-01-10 12:52:00,46.5,27.3,29.82,South,174,12.7,12.7,47,0.05,-RA,,0.18,345.0,WeatherDisplay:10.37,2013-01-10 18:52:00,
2013-01-10 12:57:00,46.6,27.9,29.82,South,181,11.5,11.5,48,0.05,-RA,,0.19,313.0,WeatherDisplay:10.37,2013-01-10 18:57:00,
2013-01-10 13:02:00,46.0,27.4,29.82,South,169,9.0,9.0,48,0.05,-RA,,0.19,311.0,WeatherDisplay:10.37,2013-01-10 19:02:00,
2013-01-10 13:07:00,46.1,27.5,29.82,SSE,152,15.0,15.0,48,0.04,-RA,,0.19,334.0,WeatherDisplay:10.37,2013-01-10 19:07:00,
2013-01-10 13:12:00,46.2,27.6,29.81,South,191,11.5,11.5,48,0.04,-RA,,0.19,380.0,WeatherDisplay:10.37,2013-01-10 19:12:00,
2013-01-10 13:17:00,46.2,27.6,29.82,South,178,11.5,11.5,48,0.05,-RA,,0.20,411.0,WeatherDisplay:10.37,2013-01-10 19:17:00,
2013-01-10 13:22:00,46.4,27.8,29.81,SSE,165,11.5,11.5,48,0.04,-RA,,0.20,334.0,WeatherDisplay:10.37,2013-01-10 19:22:00,
2013-01-10 13:27:00,45.9,27.8,29.81,SSW,201,9.2,9.2,49,0.04,-RA,,0.21,441.0,WeatherDisplay:10.37,2013-01-10 19:27:00,
2013-01-10 13:32:00,45.7,27.6,29.81,SSW,206,12.7,12.7,49,0.04,-RA,,0.21,383.0,WeatherDisplay:10.37,2013-01-10 19:32:00,
2013-01-10 13:38:00,46.0,27.9,29.81,South,190,13.8,13.8,49,0.04,-RA,,0.21,336.0,WeatherDisplay:10.37,2013-01-10 19:38:00,
2013-01-10 13:43:00,45.8,27.7,29.81,South,173,13.8,13.8,49,0.04,-RA,,0.21,332.0,WeatherDisplay:10.37,2013-01-10 19:43:00,
2013-01-10 13:48:00,45.7,27.6,29.81,SSE,166,11.5,11.5,49,0.04,-RA,,0.22,323.0,WeatherDisplay:10.37,2013-01-10 19:48:00,
2013-01-10 13:53:00,45.4,27.3,29.81,SSE,150,9.2,9.2,49,0.04,-RA,,0.22,283.0,WeatherDisplay:10.37,2013-01-10 19:53:00,
2013-01-10 13:58:00,45.6,27.5,29.81,South,180,11.5,11.5,49,0.03,-RA,,0.22,309.0,WeatherDisplay:10.37,2013-01-10 19:58:00,
2013-01-10 14:03:00,45.5,27.4,29.81,South,188,16.1,16.1,49,0.03,-RA,,0.22,315.0,WeatherDisplay:10.37,2013-01-10 20:03:00,
2013-01-10 14:08:00,45.2,26.7,29.81,SSW,198,18.4,18.4,48,0.04,-RA,,0.23,234.0,WeatherDisplay:10.37,2013-01-10 20:08:00,
2013-01-10 14:13:00,45.1,28.0,29.80,South,169,11.5,11.5,51,0.04,-RA,,0.23,243.0,WeatherDisplay:10.37,2013-01-10 20:13:00,
2013-01-10 14:19:00,45.0,27.5,29.81,South,179,12.7,12.7,50,0.03,-RA,,0.23,193.0,WeatherDisplay:10.37,2013-01-10 20:19:00,
2013-01-10 14:24:00,45.0,27.5,29.80,SSW,192,12.7,12.7,50,0.03,-RA,,0.23,251.0,WeatherDisplay:10.37,2013-01-10 20:24:00,
2013-01-10 14:29:00,44.9,27.8,29.80,South,175,10.4,10.4,51,0.02,-RA,,0.23,202.0,WeatherDisplay:10.37,2013-01-10 20:29:00,
2013-01-10 14:34:00,44.8,28.2,29.80,South,188,6.9,6.9,52,0.03,-RA,,0.24,253.0,WeatherDisplay:10.37,2013-01-10 20:34:00,
2013-01-10 14:39:00,44.4,27.9,29.80,SSE,159,12.7,12.7,52,0.03,-RA,,0.24,229.0,WeatherDisplay:10.37,2013-01-10 20:39:00,
2013-01-10 14:44:00,44.5,28.0,29.81,South,190,8.1,8.1,52,0.03,-RA,,0.24,220.0,WeatherDisplay:10.37,2013-01-10 20:44:00,
2013-01-10 14:49:00,44.3,27.8,29.81,South,176,8.1,8.1,52,0.02,-RA,,0.24,178.0,WeatherDisplay:10.37,2013-01-10 20:49:00,
2013-01-10 14:54:00,44.0,28.4,29.81,South,184,6.9,6.9,54,0.02,-RA,,0.24,197.0,WeatherDisplay:10.37,2013-01-10 20:54:00,
2013-01-10 14:59:00,44.2,27.2,29.81,SSW,202,11.5,11.5,51,0.03,-RA,,0.25,179.0,WeatherDisplay:10.37,2013-01-10 20:59:00,
2013-01-10 15:04:00,43.8,27.3,29.81,South,175,13.8,13.8,52,0.03,-RA,,0.25,151.0,WeatherDisplay:10.37,2013-01-10 21:04:00,
2013-01-10 15:09:00,43.9,27.9,29.81,South,173,11.5,11.5,53,0.02,-RA,,0.25,132.0,WeatherDisplay:10.37,2013-01-10 21:09:00,
2013-01-10 15:14:00,43.5,28.4,29.80,SSE,156,5.8,5.8,55,0.02,-RA,,0.25,130.0,WeatherDisplay:10.37,2013-01-10 21:14:00,
2013-01-10 15:19:00,43.8,26.8,29.81,South,184,11.5,11.5,51,0.02,-RA,,0.25,105.0,WeatherDisplay:10.37,2013-01-10 21:19:00,
2013-01-10 15:24:00,43.5,27.0,29.81,South,178,5.0,5.0,52,0.02,-RA,,0.25,114.0,WeatherDisplay:10.37,2013-01-10 21:24:00,
2013-01-10 15:29:00,43.6,25.7,29.81,SSW,194,11.5,11.5,49,0.02,-RA,,0.25,104.0,WeatherDisplay:10.37,2013-01-10 21:29:00,
2013-01-10 15:34:00,43.3,27.8,29.80,South,178,1.1,1.1,54,0.01,-RA,,0.25,104.0,WeatherDisplay:10.37,2013-01-10 21:34:00,
2013-01-10 15:39:00,42.7,27.2,29.81,South,175,6.9,6.9,54,0.01,-RA,,0.25,81.0,WeatherDisplay:10.37,2013-01-10 21:39:00,
2013-01-10 15:44:00,42.2,26.3,29.81,South,187,9.2,9.2,53,0.02,-RA,,0.26,74.0,WeatherDisplay:10.37,2013-01-10 21:44:00,
2013-01-10 15:49:00,42.3,26.8,29.81,South,178,5.8,5.8,54,0.02,-RA,,0.26,69.0,WeatherDisplay:10.37,2013-01-10 21:49:00,
2013-01-10 15:54:00,42.2,25.8,29.80,South,180,8.1,8.1,52,0.02,-RA,,0.26,23.0,WeatherDisplay:10.37,2013-01-10 21:54:00,
2013-01-10 15:59:00,42.1,25.3,29.80,South,190,10.4,10.4,51,0.01,-RA,,0.26,18.0,WeatherDisplay:10.37,2013-01-10 21:59:00,
2013-01-10 16:05:00,42.0,25.2,29.80,South,174,8.1,8.1,51,0.01,-RA,,0.26,19.0,WeatherDisplay:10.37,2013-01-10 22:05:00,
2013-01-10 16:10:00,41.6,26.2,29.80,South,180,2.0,12.0,54,0.00,-RA,,0.26,35.0,WeatherDisplay:10.37,2013-01-10 22:10:00,
2013-01-10 16:15:00,41.1,25.7,29.80,South,182,8.0,8.0,54,0.01,-RA,,0.26,33.0,WeatherDisplay:10.37,2013-01-10 22:15:00,
2013-01-10 16:20:00,41.1,25.7,29.79,SE,146,8.1,8.1,54,0.01,-RA,,0.26,28.0,WeatherDisplay:10.37,2013-01-10 22:20:00,
2013-01-10 16:25:00,41.0,24.2,29.79,South,183,11.5,11.5,51,0.01,-RA,,0.26,23.0,WeatherDisplay:10.37,2013-01-10 22:25:00,
2013-01-10 16:30:00,40.9,25.1,29.78,South,169,10.0,10.0,53,0.01,-RA,,0.26,16.0,WeatherDisplay:10.37,2013-01-10 22:30:00,
2013-01-10 16:36:00,40.6,23.9,29.77,SSW,192,9.2,9.2,51,0.01,-RA,,0.26,9.0,WeatherDisplay:10.37,2013-01-10 22:36:00,
2013-01-10 16:41:00,40.4,23.7,29.77,South,180,10.4,10.4,51,0.01,-RA,,0.26,5.0,WeatherDisplay:10.37,2013-01-10 22:41:00,
2013-01-10 16:46:00,40.2,24.0,29.76,SSW,199,8.0,8.0,52,0.00,-RA,,0.26,0.0,WeatherDisplay:10.37,2013-01-10 22:46:00,
2013-01-10 16:51:00,40.1,24.3,29.76,SSE,167,8.1,8.1,53,0.00,-RA,,0.26,0.0,WeatherDisplay:10.37,2013-01-10 22:51:00,
2013-01-10 16:56:00,39.9,23.7,29.75,South,175,11.0,11.0,52,0.00,-RA,,0.26,0.0,WeatherDisplay:10.37,2013-01-10 22:56:00,
2013-01-10 17:01:00,39.9,23.7,29.76,SSE,164,11.5,11.5,52,0.00,-RA,,0.26,0.0,WeatherDisplay:10.37,2013-01-10 23:01:00,
2013-01-10 17:06:00,39.8,23.1,29.75,South,176,9.0,9.0,51,0.00,-RA,,0.26,0.0,WeatherDisplay:10.37,2013-01-10 23:06:00,
2013-01-10 17:11:00,39.7,22.6,29.75,SSE,155,11.5,11.5,50,0.01,-RA,,0.27,0.0,WeatherDisplay:10.37,2013-01-10 23:11:00,
2013-01-10 17:16:00,39.8,22.7,29.75,South,174,9.0,9.0,50,0.01,-RA,,0.27,0.0,WeatherDisplay:10.37,2013-01-10 23:16:00,
2013-01-10 17:21:00,39.7,22.1,29.74,SSW,200,11.5,11.5,49,0.01,-RA,,0.27,0.0,WeatherDisplay:10.37,2013-01-10 23:21:00,
2013-01-10 17:26:00,39.7,22.6,29.74,South,182,5.8,5.8,50,0.01,-RA,,0.27,0.0,WeatherDisplay:10.37,2013-01-10 23:26:00,
2013-01-10 17:31:00,39.6,22.9,29.74,South,184,11.5,11.5,51,0.01,-RA,,0.27,0.0,WeatherDisplay:10.37,2013-01-10 23:31:00,
2013-01-10 17:36:00,39.5,23.3,29.74,South,185,4.6,4.6,52,0.01,-RA,,0.27,0.0,WeatherDisplay:10.37,2013-01-10 23:36:00,
2013-01-10 17:41:00,39.3,23.6,29.73,SSW,198,5.8,5.8,53,0.01,-RA,,0.27,0.0,WeatherDisplay:10.37,2013-01-10 23:41:00,
2013-01-10 17:47:00,39.2,23.5,29.74,South,180,11.5,11.5,53,0.01,-RA,,0.27,0.0,WeatherDisplay:10.37,2013-01-10 23:47:00,
2013-01-10 17:52:00,39.1,23.8,29.74,South,175,5.8,5.8,54,0.01,-RA,,0.27,0.0,WeatherDisplay:10.37,2013-01-10 23:52:00,
2013-01-10 17:57:00,39.1,23.8,29.74,South,172,5.8,5.8,54,0.01,-RA,,0.27,0.0,WeatherDisplay:10.37,2013-01-10 23:57:00,
2013-01-10 18:02:00,39.0,23.7,29.74,South,183,9.2,9.2,54,0.01,-RA,,0.27,0.0,WeatherDisplay:10.37,2013-01-11 00:02:00,
2013-01-10 18:07:00,38.9,23.7,29.73,South,180,9.2,9.2,54,0.01,-RA,,0.27,0.0,WeatherDisplay:10.37,2013-01-11 00:07:00,
2013-01-10 18:12:00,38.8,23.1,29.73,South,169,9.2,9.2,53,0.00,-RA,,0.27,0.0,WeatherDisplay:10.37,2013-01-11 00:12:00,
2013-01-10 18:17:00,38.7,23.5,29.73,South,189,8.0,8.0,54,0.00,-RA,,0.27,0.0,WeatherDisplay:10.37,2013-01-11 00:17:00,
2013-01-10 18:22:00,38.7,23.9,29.73,South,173,5.8,5.8,55,0.00,-RA,,0.27,0.0,WeatherDisplay:10.37,2013-01-11 00:22:00,
2013-01-10 18:27:00,38.6,23.8,29.73,South,182,6.9,6.9,55,0.00,-RA,,0.27,0.0,WeatherDisplay:10.37,2013-01-11 00:27:00,
2013-01-10 18:32:00,38.5,24.6,29.73,SSE,168,10.4,10.4,57,0.00,-RA,,0.27,0.0,WeatherDisplay:10.37,2013-01-11 00:32:00,
2013-01-10 18:37:00,38.5,24.6,29.72,South,176,11.5,11.5,57,0.00,-RA,,0.27,0.0,WeatherDisplay:10.37,2013-01-11 00:37:00,
2013-01-10 18:42:00,38.5,25.4,29.72,SSE,164,5.8,5.8,59,0.00,-RA,,0.27,0.0,WeatherDisplay:10.37,2013-01-11 00:42:00,
2013-01-10 18:47:00,38.4,25.7,29.72,South,182,8.1,8.1,60,0.00,-RA,,0.27,0.0,WeatherDisplay:10.37,2013-01-11 00:47:00,
2013-01-10 18:52:00,38.4,26.1,29.71,SSE,162,8.1,8.1,61,0.00,-RA,,0.27,0.0,WeatherDisplay:10.37,2013-01-11 00:52:00,
2013-01-10 18:57:00,38.3,26.0,29.71,South,180,3.5,3.5,61,0.00,-RA,,0.27,0.0,WeatherDisplay:10.37,2013-01-11 00:57:00,
2013-01-10 19:02:00,38.3,26.0,29.70,South,185,3.0,3.0,61,0.00,-RA,,0.27,0.0,WeatherDisplay:10.37,2013-01-11 01:02:00,
2013-01-10 19:07:00,38.1,25.8,29.70,South,188,6.9,6.9,61,0.00,-RA,,0.27,0.0,WeatherDisplay:10.37,2013-01-11 01:07:00,
2013-01-10 19:12:00,38.0,26.1,29.70,South,175,8.1,8.1,62,0.00,-RA,,0.27,0.0,WeatherDisplay:10.37,2013-01-11 01:12:00,
2013-01-10 19:17:00,37.9,26.4,29.70,South,173,6.9,6.9,63,0.00,-RA,,0.27,0.0,WeatherDisplay:10.37,2013-01-11 01:17:00,
2013-01-10 19:23:00,37.9,27.5,29.70,SSE,161,5.0,5.0,66,0.00,-RA,,0.27,0.0,WeatherDisplay:10.37,2013-01-11 01:23:00,
2013-01-10 19:28:00,37.7,27.7,29.70,South,188,10.4,10.4,67,0.00,-RA,,0.27,0.0,WeatherDisplay:10.37,2013-01-11 01:28:00,
2013-01-10 19:33:00,37.7,27.7,29.70,SSE,167,8.1,8.1,67,0.00,-RA,,0.27,0.0,WeatherDisplay:10.37,2013-01-11 01:33:00,
2013-01-10 19:38:00,37.6,27.3,29.70,South,180,4.0,4.0,66,0.00,-RA,,0.27,0.0,WeatherDisplay:10.37,2013-01-11 01:38:00,
2013-01-10 19:43:00,37.5,27.5,29.69,South,184,3.5,3.5,67,0.00,-RA,,0.27,0.0,WeatherDisplay:10.37,2013-01-11 01:43:00,
2013-01-10 19:48:00,37.3,27.3,29.69,South,169,4.0,4.0,67,0.00,-RA,,0.27,0.0,WeatherDisplay:10.37,2013-01-11 01:48:00,
2013-01-10 19:53:00,37.2,26.9,29.68,South,172,5.8,5.8,66,0.00,-RA,,0.27,0.0,WeatherDisplay:10.37,2013-01-11 01:53:00,
2013-01-10 19:58:00,37.1,26.8,29.68,South,182,8.1,8.1,66,0.00,-RA,,0.27,0.0,WeatherDisplay:10.37,2013-01-11 01:58:00,
2013-01-10 20:04:00,37.0,27.1,29.68,South,188,3.5,3.5,67,0.00,-RA,,0.27,0.0,WeatherDisplay:10.37,2013-01-11 02:04:00,
2013-01-10 20:09:00,36.9,28.0,29.68,SSW,195,5.8,5.8,70,0.00,-RA,,0.27,0.0,WeatherDisplay:10.37,2013-01-11 02:09:00,
2013-01-10 20:14:00,36.6,28.4,29.67,SE,144,1.1,1.1,72,0.01,-RA,,0.28,0.0,WeatherDisplay:10.37,2013-01-11 02:14:00,
2013-01-10 20:19:00,36.4,28.6,29.67,SSE,150,1.1,1.1,73,0.01,-RA,,0.28,0.0,WeatherDisplay:10.37,2013-01-11 02:19:00,
2013-01-10 20:24:00,36.1,28.6,29.67,SSE,168,3.5,3.5,74,0.02,-RA,,0.29,0.0,WeatherDisplay:10.37,2013-01-11 02:24:00,
2013-01-10 20:29:00,35.8,28.6,29.66,South,176,3.5,3.5,75,0.02,-RA,,0.29,0.0,WeatherDisplay:10.37,2013-01-11 02:29:00,
2013-01-10 20:34:00,35.5,28.7,29.66,SE,138,4.6,4.6,76,0.02,-RA,,0.29,0.0,WeatherDisplay:10.37,2013-01-11 02:34:00,
2013-01-10 20:39:00,35.2,28.7,29.65,SSE,147,4.6,4.6,77,0.03,-RA,,0.30,0.0,WeatherDisplay:10.37,2013-01-11 02:39:00,
2013-01-10 20:44:00,34.9,28.4,29.65,SSE,164,3.5,3.5,77,0.03,-RA,,0.30,0.0,WeatherDisplay:10.37,2013-01-11 02:44:00,
2013-01-10 20:49:00,34.7,28.2,29.65,South,169,3.5,3.5,77,0.04,-RA,,0.31,0.0,WeatherDisplay:10.37,2013-01-11 02:49:00,
2013-01-10 20:54:00,34.4,28.2,29.65,SE,145,3.5,3.5,78,0.04,-RA,,0.31,0.0,WeatherDisplay:10.37,2013-01-11 02:54:00,
2013-01-10 20:59:00,34.4,28.6,29.65,SSE,161,3.5,3.5,79,0.04,-RA,,0.31,0.0,WeatherDisplay:10.37,2013-01-11 02:59:00,
2013-01-10 21:05:00,34.4,28.9,29.65,SSE,159,6.9,6.9,80,0.05,-RA,,0.32,0.0,WeatherDisplay:10.37,2013-01-11 03:05:00,
2013-01-10 21:10:00,34.4,29.2,29.64,SSE,157,2.0,7.0,81,0.02,-RA,,0.33,0.0,WeatherDisplay:10.37,2013-01-11 03:10:00,
2013-01-10 21:15:00,34.2,29.0,29.62,SE,146,5.8,5.8,81,0.05,-RA,,0.33,0.0,WeatherDisplay:10.37,2013-01-11 03:15:00,
2013-01-10 21:20:00,34.1,29.2,29.62,SSE,148,3.5,3.5,82,0.06,-RA,,0.34,0.0,WeatherDisplay:10.37,2013-01-11 03:20:00,
2013-01-10 21:25:00,33.9,29.3,29.62,SSE,161,4.6,4.6,83,0.06,-RA,,0.35,0.0,WeatherDisplay:10.37,2013-01-11 03:25:00,
2013-01-10 21:30:00,33.8,29.5,29.62,SSE,153,4.6,4.6,84,0.06,-RA,,0.35,0.0,WeatherDisplay:10.37,2013-01-11 03:30:00,
2013-01-10 21:35:00,33.8,29.5,29.61,SE,139,6.0,6.0,84,0.07,-RA,,0.36,0.0,WeatherDisplay:10.37,2013-01-11 03:35:00,
2013-01-10 21:40:00,33.7,29.7,29.61,SSE,152,3.5,3.5,85,0.07,-RA,,0.37,0.0,WeatherDisplay:10.37,2013-01-11 03:40:00,
2013-01-10 21:45:00,33.7,29.7,29.61,South,179,3.5,3.5,85,0.07,-RA,,0.37,0.0,WeatherDisplay:10.37,2013-01-11 03:45:00,
2013-01-10 21:50:00,33.7,30.0,29.61,SSE,155,5.8,5.8,86,0.07,-RA,,0.38,0.0,WeatherDisplay:10.37,2013-01-11 03:50:00,
2013-01-10 21:55:00,33.7,30.0,29.61,SSW,209,8.1,8.1,86,0.07,-RA,,0.38,0.0,WeatherDisplay:10.37,2013-01-11 03:55:00,
2013-01-10 22:00:00,33.8,30.3,29.60,SSE,149,8.1,8.1,87,0.08,-RA,,0.39,0.0,WeatherDisplay:10.37,2013-01-11 04:00:00,
2013-01-10 22:05:00,33.8,30.3,29.60,SSE,149,8.1,8.1,87,0.08,-RA,,0.39,0.0,WeatherDisplay:10.37,2013-01-11 04:05:00,
2013-01-10 22:10:00,33.8,30.6,29.60,South,185,5.8,5.8,88,0.09,-RA,,0.41,0.0,WeatherDisplay:10.37,2013-01-11 04:10:00,
2013-01-10 22:15:00,33.8,30.6,29.60,ESE,111,5.0,5.0,88,0.09,-RA,,0.41,0.0,WeatherDisplay:10.37,2013-01-11 04:15:00,
2013-01-10 22:20:00,33.7,30.5,29.60,SE,127,2.3,2.3,88,0.09,-RA,,0.42,0.0,WeatherDisplay:10.37,2013-01-11 04:20:00,
2013-01-10 22:25:00,33.7,30.5,29.59,SSE,161,8.1,8.1,88,0.08,-RA,,0.42,0.0,WeatherDisplay:10.37,2013-01-11 04:25:00,
2013-01-10 22:30:00,33.6,30.7,29.59,South,176,3.5,3.5,89,0.09,-RA,,0.43,0.0,WeatherDisplay:10.37,2013-01-11 04:30:00,
2013-01-10 22:35:00,33.5,30.6,29.60,SSE,150,5.8,5.8,89,0.08,-RA,,0.43,0.0,WeatherDisplay:10.37,2013-01-11 04:35:00,
2013-01-10 22:41:00,33.4,30.5,29.60,South,182,5.8,5.8,89,0.07,-RA,,0.43,0.0,WeatherDisplay:10.37,2013-01-11 04:41:00,
2013-01-10 22:46:00,33.3,30.4,29.60,SSE,165,9.2,9.2,89,0.08,-RA,,0.44,0.0,WeatherDisplay:10.37,2013-01-11 04:46:00,
2013-01-10 22:51:00,33.2,30.3,29.59,South,171,5.8,5.8,89,0.07,-RA,,0.44,0.0,WeatherDisplay:10.37,2013-01-11 04:51:00,
2013-01-10 22:56:00,33.2,30.6,29.59,South,183,4.0,4.0,90,0.07,-RA,,0.44,0.0,WeatherDisplay:10.37,2013-01-11 04:56:00,
2013-01-10 23:00:00,33.1,30.5,29.59,South,183,1.0,12.0,90,0.00,-RA,,0.44,0.0,WeatherDisplay:10.37,2013-01-11 05:00:00,
2013-01-10 23:03:00,33.0,30.4,29.58,South,172,2.3,2.3,90,0.05,-RA,,0.44,0.0,WeatherDisplay:10.37,2013-01-11 05:03:00,
2013-01-10 23:04:00,33.0,30.4,29.59,SSW,194,6.9,6.9,90,0.05,-RA,,0.44,0.0,WeatherDisplay:10.37,2013-01-11 05:04:00,
2013-01-10 23:09:00,33.0,30.4,29.58,South,184,5.8,5.8,90,0.05,-RA,,0.45,0.0,WeatherDisplay:10.37,2013-01-11 05:09:00,
2013-01-10 23:15:00,32.9,30.3,29.58,SSE,159,6.9,6.9,90,0.04,-RA,,0.45,0.0,WeatherDisplay:10.37,2013-01-11 05:15:00,
2013-01-10 23:20:00,32.8,30.2,29.57,SSE,162,3.5,3.5,90,0.03,-RA,,0.45,0.0,WeatherDisplay:10.37,2013-01-11 05:20:00,
2013-01-10 23:25:00,32.8,30.2,29.57,SSE,156,5.8,5.8,90,0.03,-RA,,0.45,0.0,WeatherDisplay:10.37,2013-01-11 05:25:00,
2013-01-10 23:30:00,32.8,30.2,29.58,South,180,5.8,5.8,90,0.02,-RA,,0.45,0.0,WeatherDisplay:10.37,2013-01-11 05:30:00,
2013-01-10 23:35:00,32.7,30.1,29.58,South,178,3.5,3.5,90,0.02,-RA,,0.45,0.0,WeatherDisplay:10.37,2013-01-11 05:35:00,
2013-01-10 23:40:00,32.7,30.4,29.58,South,179,3.5,3.5,91,0.02,-RA,,0.45,0.0,WeatherDisplay:10.37,2013-01-11 05:40:00,
2013-01-10 23:45:00,32.7,30.4,29.57,South,179,4.6,4.6,91,0.01,-RA,,0.45,0.0,WeatherDisplay:10.37,2013-01-11 05:45:00,
2013-01-10 23:50:00,32.6,30.3,29.57,South,175,3.5,3.5,91,0.01,-RA,,0.45,0.0,WeatherDisplay:10.37,2013-01-11 05:50:00,
2013-01-10 23:55:00,32.6,30.3,29.57,SSW,198,6.0,6.0,91,0.01,-RA,,0.45,0.0,WeatherDisplay:10.37,2013-01-11 05:55:00,